Time;durP1;ratioP1;P1;durP2;ratioP2;P2;SDS_P1;SDS_P2;PMS_P1;PMS_P2;Temp;Humidity;BMP_temperature;BMP_pressure;BME280_temperature;BME280_humidity;BME280_pressure;Samples;Min_cycle;Max_cycle;Signal;HPM_P1;HPM_P2
2022/01/21 00:01:00;;;;;;;;;;;22.40;52.50;;;;;;4996013;28;950;-36
2022/01/21 00:03:27;;;;;;;;;;;22.40;52.30;;;;;;4996355;28;1910;-37
2022/01/21 00:05:54;;;;;;;;;;;22.40;52.40;;;;;;4996913;28;986;-36
2022/01/21 00:08:22;;;;;;;;;;;22.40;52.30;;;;;;4996240;28;891;-36
2022/01/21 00:10:50;;;;;;;;;;;22.40;52.30;;;;;;4996163;28;941;-36
2022/01/21 00:13:22;;;;;;;;;;;22.30;52.30;;;;;;4996770;28;1022;-37
2022/01/21 00:15:48;;;;;;;;;;;22.30;52.40;;;;;;4996857;28;950;-36
2022/01/21 00:18:15;;;;;;;;;;;22.20;52.40;;;;;;4996454;28;1014;-36
2022/01/21 00:31:40;;;;;;;;;;;22.30;52.30;;;;;;4995790;28;911;-36
2022/01/21 00:34:07;;;;;;;;;;;22.30;52.30;;;;;;4996328;28;1036;-37
2022/01/21 00:36:34;;;;;;;;;;;22.20;52.30;;;;;;4996692;28;984;-38
2022/01/21 00:39:02;;;;;;;;;;;22.20;52.20;;;;;;4996251;28;1016;-36
2022/01/21 00:41:33;;;;;;;;;;;22.20;52.20;;;;;;4996529;28;1008;-36
2022/01/21 00:43:59;;;;;;;;;;;22.20;52.30;;;;;;4996440;28;1906;-37
2022/01/21 00:46:26;;;;;;;;;;;22.30;52.40;;;;;;4995926;28;1481;-36
2022/01/21 00:48:53;;;;;;;;;;;22.20;52.20;;;;;;4996710;28;997;-36
2022/01/21 00:51:19;;;;;;;;;;;22.20;52.30;;;;;;4996070;28;929;-37
2022/01/21 00:53:46;;;;;;;;;;;22.10;52.30;;;;;;4996115;28;1032;-36
2022/01/21 00:56:14;;;;;;;;;;;22.10;52.30;;;;;;4996137;28;946;-36
2022/01/21 00:58:41;;;;;;;;;;;22.10;52.30;;;;;;4996385;28;1013;-37
2022/01/21 01:01:08;;;;;;;;;;;22.20;52.20;;;;;;4995069;28;934;-36
2022/01/21 01:03:34;;;;;;;;;;;22.10;53.20;;;;;;4995909;28;1966;-36
2022/01/21 01:06:01;;;;;;;;;;;22.20;52.20;;;;;;4996355;28;941;-36
2022/01/21 01:08:28;;;;;;;;;;;22.20;52.20;;;;;;4995722;28;1013;-36
2022/01/21 01:11:17;;;;;;;;;;;22.20;52.20;;;;;;4995322;28;1013;-36
2022/01/21 01:22:00;;;;;;;;;;;22.10;52.20;;;;;;5029688;28;1278;-37
2022/01/21 01:30:06;;;;;;;;;;;22.00;52.20;;;;;;5042985;28;1392;-37
2022/01/21 01:32:33;;;;;;;;;;;22.00;52.30;;;;;;4995938;28;1010;-36
2022/01/21 01:35:00;;;;;;;;;;;22.00;52.20;;;;;;4996322;28;932;-37
2022/01/21 01:37:38;;;;;;;;;;;22.00;52.20;;;;;;4995828;28;993;-38
2022/01/21 01:40:17;;;;;;;;;;;21.90;52.40;;;;;;4995496;28;1012;-37
2022/01/21 01:43:01;;;;;;;;;;;21.90;52.60;;;;;;4995765;28;966;-36
2022/01/21 01:50:59;;;;;;;;;;;21.90;52.40;;;;;;4995238;28;606;-37
2022/01/21 01:53:27;;;;;;;;;;;21.90;52.50;;;;;;4995299;28;1013;-36
2022/01/21 01:55:54;;;;;;;;;;;21.90;52.60;;;;;;4995363;28;973;-37
2022/01/21 01:58:21;;;;;;;;;;;21.90;52.50;;;;;;4995734;28;969;-36
2022/01/21 02:00:49;;;;;;;;;;;21.80;52.50;;;;;;4995687;28;1087;-36
2022/01/21 02:03:16;;;;;;;;;;;21.80;52.50;;;;;;4996002;28;930;-36
2022/01/21 02:05:43;;;;;;;;;;;21.90;52.50;;;;;;4995316;28;1899;-36
2022/01/21 02:08:10;;;;;;;;;;;21.80;52.40;;;;;;4995977;28;933;-36
2022/01/21 02:10:37;;;;;;;;;;;21.80;52.40;;;;;;4995257;28;973;-37
2022/01/21 02:13:16;;;;;;;;;;;21.80;52.40;;;;;;4997545;28;916;-37
2022/01/21 02:15:43;;;;;;;;;;;21.90;52.40;;;;;;4998588;28;962;-38
2022/01/21 02:23:53;;;;;;;;;;;21.80;52.40;;;;;;5079488;28;1898;-36
2022/01/21 02:26:19;;;;;;;;;;;21.80;52.30;;;;;;5017547;28;1078;-37
2022/01/21 02:28:46;;;;;;;;;;;21.80;52.30;;;;;;4996740;28;996;-36
2022/01/21 02:31:13;;;;;;;;;;;21.80;52.20;;;;;;4998015;28;991;-36
2022/01/21 02:33:40;;;;;;;;;;;21.70;52.30;;;;;;4998804;28;989;-36
2022/01/21 02:36:06;;;;;;;;;;;21.80;52.20;;;;;;4998171;28;1009;-37
2022/01/21 02:38:33;;;;;;;;;;;21.80;52.40;;;;;;4998616;28;976;-37
2022/01/21 02:41:01;;;;;;;;;;;21.70;52.30;;;;;;4998233;28;1001;-36
2022/01/21 02:43:28;;;;;;;;;;;21.80;52.30;;;;;;4997246;28;942;-36
2022/01/21 02:45:55;;;;;;;;;;;21.70;52.40;;;;;;4998219;28;1991;-39
2022/01/21 02:48:23;;;;;;;;;;;21.70;52.30;;;;;;4997436;28;1024;-38
2022/01/21 02:50:49;;;;;;;;;;;21.70;52.40;;;;;;4997492;28;1017;-38
2022/01/21 02:53:26;;;;;;;;;;;21.70;52.40;;;;;;4998163;28;1005;-36
2022/01/21 02:55:53;;;;;;;;;;;21.60;52.30;;;;;;4998020;28;951;-37
2022/01/21 02:58:21;;;;;;;;;;;21.70;52.30;;;;;;4998151;28;989;-37
2022/01/21 03:00:49;;;;;;;;;;;21.70;52.20;;;;;;4997769;28;1011;-37
2022/01/21 03:03:15;;;;;;;;;;;21.70;52.20;;;;;;4998298;28;976;-38
2022/01/21 03:05:42;;;;;;;;;;;21.70;52.10;;;;;;4997491;28;1975;-38
2022/01/21 03:08:09;;;;;;;;;;;21.70;52.20;;;;;;4997976;28;999;-37
2022/01/21 03:10:35;;;;;;;;;;;21.70;52.30;;;;;;4998019;28;953;-37
2022/01/21 03:13:03;;;;;;;;;;;21.70;52.20;;;;;;4998039;28;921;-37
2022/01/21 03:15:31;;;;;;;;;;;21.70;52.20;;;;;;4998066;28;973;-40
2022/01/21 03:17:57;;;;;;;;;;;21.70;52.20;;;;;;4997995;28;1745;-38
2022/01/21 03:20:24;;;;;;;;;;;21.70;52.10;;;;;;4997326;28;991;-37
2022/01/21 03:22:51;;;;;;;;;;;21.60;52.20;;;;;;4997253;28;1017;-36
2022/01/21 03:25:18;;;;;;;;;;;21.60;52.10;;;;;;4996956;28;1910;-36
2022/01/21 03:27:44;;;;;;;;;;;21.60;52.20;;;;;;4997892;28;1024;-38
2022/01/21 03:30:12;;;;;;;;;;;21.60;52.10;;;;;;4997764;28;917;-37
2022/01/21 03:32:40;;;;;;;;;;;21.60;52.30;;;;;;4997545;28;992;-37
2022/01/21 03:35:07;;;;;;;;;;;21.60;52.20;;;;;;4997505;28;1001;-37
2022/01/21 03:37:33;;;;;;;;;;;21.60;52.20;;;;;;4997546;28;1033;-38
2022/01/21 03:40:00;;;;;;;;;;;21.60;52.10;;;;;;4997291;28;1428;-37
2022/01/21 03:42:28;;;;;;;;;;;21.60;51.90;;;;;;4997122;28;1024;-37
2022/01/21 03:44:55;;;;;;;;;;;21.60;52.10;;;;;;4997244;28;1956;-38
2022/01/21 03:47:22;;;;;;;;;;;21.60;52.20;;;;;;4997437;28;973;-37
2022/01/21 03:49:54;;;;;;;;;;;21.50;52.00;;;;;;4997485;28;952;-38
2022/01/21 03:52:21;;;;;;;;;;;21.50;52.10;;;;;;4996915;28;1004;-37
2022/01/21 03:54:48;;;;;;;;;;;21.50;52.10;;;;;;4997287;28;922;-40
2022/01/21 03:57:14;;;;;;;;;;;21.50;52.00;;;;;;4996963;28;989;-37
2022/01/21 03:59:41;;;;;;;;;;;21.60;51.90;;;;;;4997656;28;949;-37
2022/01/21 04:02:08;;;;;;;;;;;21.60;52.00;;;;;;4996783;28;981;-37
2022/01/21 04:04:35;;;;;;;;;;;21.50;51.90;;;;;;4996853;28;1977;-37
2022/01/21 04:07:04;;;;;;;;;;;21.50;52.00;;;;;;4997175;28;1107;-37
2022/01/21 04:09:30;;;;;;;;;;;21.60;52.00;;;;;;4997014;28;973;-37
2022/01/21 04:11:57;;;;;;;;;;;21.60;51.70;;;;;;4996881;28;954;-37
2022/01/21 04:14:24;;;;;;;;;;;21.50;52.00;;;;;;4996717;28;936;-38
2022/01/21 04:16:50;;;;;;;;;;;21.50;52.10;;;;;;4997307;28;1048;-38
2022/01/21 04:19:17;;;;;;;;;;;21.40;52.10;;;;;;4996716;28;1007;-37
2022/01/21 04:21:44;;;;;;;;;;;21.50;52.10;;;;;;4996192;28;996;-38
2022/01/21 04:24:13;;;;;;;;;;;21.50;52.00;;;;;;4996815;28;997;-38
2022/01/21 04:26:40;;;;;;;;;;;21.40;51.90;;;;;;4996717;28;1910;-37
2022/01/21 04:29:06;;;;;;;;;;;21.40;52.10;;;;;;4996952;28;1028;-37
2022/01/21 04:31:33;;;;;;;;;;;21.40;53.20;;;;;;4996898;28;1004;-36
2022/01/21 04:34:00;;;;;;;;;;;21.50;52.00;;;;;;4996598;28;1020;-38
2022/01/21 04:36:26;;;;;;;;;;;21.40;52.00;;;;;;4995418;28;949;-37
2022/01/21 04:38:55;;;;;;;;;;;21.40;52.10;;;;;;4996722;28;1008;-36
2022/01/21 04:41:41;;;;;;;;;;;21.40;52.20;;;;;;4996449;28;988;-37
2022/01/21 04:49:35;;;;;;;;;;;21.50;52.00;;;;;;4998003;28;1671;-37
2022/01/21 04:52:04;;;;;;;;;;;21.60;52.10;;;;;;4996258;28;968;-36
2022/01/21 04:54:32;;;;;;;;;;;21.80;52.00;;;;;;4996301;28;1004;-36
2022/01/21 04:57:00;;;;;;;;;;;21.80;51.80;;;;;;4995942;28;1024;-37
2022/01/21 04:59:27;;;;;;;;;;;21.90;51.70;;;;;;4996222;28;1021;-36
2022/01/21 05:01:54;;;;;;;;;;;22.00;51.60;;;;;;4995993;28;957;-36
2022/01/21 05:04:21;;;;;;;;;;;22.00;51.50;;;;;;4995856;28;973;-36
2022/01/21 05:06:50;;;;;;;;;;;22.10;51.50;;;;;;4995491;28;1902;-36
2022/01/21 05:09:17;;;;;;;;;;;22.10;52.60;;;;;;4995922;28;996;-36
2022/01/21 05:11:44;;;;;;;;;;;22.10;51.50;;;;;;4994084;28;1035;-36
2022/01/21 05:14:17;;;;;;;;;;;22.20;51.60;;;;;;4994543;28;1017;-37
2022/01/21 05:16:47;;;;;;;;;;;22.10;51.50;;;;;;4995998;28;996;-36
2022/01/21 05:19:15;;;;;;;;;;;22.20;51.50;;;;;;4995901;28;937;-36
2022/01/21 05:21:42;;;;;;;;;;;22.20;51.50;;;;;;4995439;28;954;-36
2022/01/21 05:24:09;;;;;;;;;;;22.30;51.50;;;;;;4994925;28;965;-37
2022/01/21 05:26:38;;;;;;;;;;;22.30;51.30;;;;;;4995666;28;1993;-36
2022/01/21 05:29:05;;;;;;;;;;;22.30;51.30;;;;;;4995618;28;936;-37
2022/01/21 05:31:33;;;;;;;;;;;22.30;51.20;;;;;;4995209;28;1009;-37
2022/01/21 05:33:59;;;;;;;;;;;22.30;51.20;;;;;;4995021;28;989;-37
2022/01/21 05:36:27;;;;;;;;;;;22.30;51.30;;;;;;4995020;28;989;-36
2022/01/21 05:38:53;;;;;;;;;;;22.30;51.20;;;;;;4995142;28;1040;-36
2022/01/21 05:41:22;;;;;;;;;;;22.30;51.20;;;;;;4995070;28;941;-38
2022/01/21 05:43:50;;;;;;;;;;;22.20;51.20;;;;;;4994611;28;1032;-36
2022/01/21 05:46:34;;;;;;;;;;;22.20;51.30;;;;;;4994414;28;1981;-37
2022/01/21 05:49:02;;;;;;;;;;;22.20;51.30;;;;;;4997515;28;982;-37
2022/01/21 05:51:29;;;;;;;;;;;22.30;51.30;;;;;;4997835;28;1016;-37
2022/01/21 05:53:56;;;;;;;;;;;22.30;51.20;;;;;;4996780;28;1024;-36
2022/01/21 05:56:24;;;;;;;;;;;22.20;51.10;;;;;;4997310;28;1020;-36
2022/01/21 05:58:51;;;;;;;;;;;22.30;51.20;;;;;;4991837;28;2473;-36
2022/01/21 06:01:18;;;;;;;;;;;22.30;51.20;;;;;;4977652;28;1084;-36
2022/01/21 06:03:45;;;;;;;;;;;22.20;51.30;;;;;;4978054;28;868;-37
2022/01/21 06:06:13;;;;;;;;;;;22.20;51.40;;;;;;4978598;28;1976;-37
2022/01/21 06:08:39;;;;;;;;;;;22.20;51.30;;;;;;4978333;28;944;-37
2022/01/21 06:11:06;;;;;;;;;;;22.20;51.30;;;;;;4978052;28;954;-37
2022/01/21 06:13:34;;;;;;;;;;;22.10;51.30;;;;;;4976893;28;992;-36
2022/01/21 06:16:01;;;;;;;;;;;22.20;51.40;;;;;;4975947;28;1037;-37
2022/01/21 06:18:27;;;;;;;;;;;22.20;51.30;;;;;;4976748;28;930;-37
2022/01/21 06:20:54;;;;;;;;;;;22.20;51.20;;;;;;4976001;28;921;-37
2022/01/21 06:23:22;;;;;;;;;;;22.20;51.20;;;;;;4976522;28;865;-37
2022/01/21 06:25:49;;;;;;;;;;;22.10;51.30;;;;;;4975331;28;1899;-36
2022/01/21 06:28:16;;;;;;;;;;;22.10;51.40;;;;;;4976722;28;924;-37
2022/01/21 06:30:43;;;;;;;;;;;22.10;51.40;;;;;;4976201;28;1017;-37
2022/01/21 06:33:10;;;;;;;;;;;22.10;51.40;;;;;;4976981;28;976;-36
2022/01/21 06:35:37;;;;;;;;;;;22.00;51.40;;;;;;4975726;28;945;-37
2022/01/21 06:38:03;;;;;;;;;;;21.90;51.50;;;;;;4975818;28;1058;-36
2022/01/21 06:40:31;;;;;;;;;;;21.90;51.50;;;;;;4976624;28;957;-36
2022/01/21 06:43:02;;;;;;;;;;;21.90;51.50;;;;;;4976593;28;997;-37
2022/01/21 06:45:29;;;;;;;;;;;22.00;51.40;;;;;;4977489;28;1902;-37
2022/01/21 06:47:58;;;;;;;;;;;22.00;51.50;;;;;;4977392;28;1081;-37
2022/01/21 06:50:25;;;;;;;;;;;22.00;51.50;;;;;;4977529;28;997;-37
2022/01/21 06:52:51;;;;;;;;;;;21.90;51.60;;;;;;4976736;28;1039;-37
2022/01/21 06:55:18;;;;;;;;;;;21.80;51.80;;;;;;4977122;28;1044;-37
2022/01/21 06:57:46;;;;;;;;;;;21.80;51.80;;;;;;4976702;28;936;-37
2022/01/21 07:00:18;;;;;;;;;;;21.90;51.70;;;;;;4975994;28;990;-38
2022/01/21 07:02:45;;;;;;;;;;;22.00;51.50;;;;;;4976013;28;924;-38
2022/01/21 07:05:11;;;;;;;;;;;22.00;51.30;;;;;;4975822;28;944;-38
2022/01/21 07:07:38;;;;;;;;;;;22.00;51.40;;;;;;4976518;28;2044;-38
2022/01/21 07:10:06;;;;;;;;;;;22.00;51.30;;;;;;4976502;28;997;-38
2022/01/21 07:12:33;;;;;;;;;;;21.90;51.30;;;;;;4977110;28;930;-37
2022/01/21 07:15:01;;;;;;;;;;;22.00;51.30;;;;;;4975964;28;1769;-37
2022/01/21 07:17:28;;;;;;;;;;;22.00;51.30;;;;;;4976598;28;1019;-36
2022/01/21 07:19:54;;;;;;;;;;;22.00;51.20;;;;;;4976400;28;992;-36
2022/01/21 07:22:21;;;;;;;;;;;21.90;51.10;;;;;;4976343;28;945;-38
2022/01/21 07:24:48;;;;;;;;;;;22.00;51.20;;;;;;4976253;28;1008;-37
2022/01/21 07:27:15;;;;;;;;;;;22.00;51.10;;;;;;4976009;28;1981;-37
2022/01/21 07:29:42;;;;;;;;;;;21.90;51.10;;;;;;4975819;28;1047;-37
2022/01/21 07:32:10;;;;;;;;;;;21.90;51.20;;;;;;4975310;28;985;-37
2022/01/21 07:34:37;;;;;;;;;;;21.90;51.20;;;;;;4976647;28;1062;-39
2022/01/21 07:37:04;;;;;;;;;;;21.90;52.30;;;;;;4976394;28;925;-36
2022/01/21 07:39:30;;;;;;;;;;;21.90;51.10;;;;;;4976723;28;1016;-37
2022/01/21 07:41:57;;;;;;;;;;;21.90;51.20;;;;;;4975875;28;990;-39
2022/01/21 07:44:24;;;;;;;;;;;21.90;51.20;;;;;;4976564;28;980;-39
2022/01/21 07:46:51;;;;;;;;;;;21.90;51.20;;;;;;4976671;28;1899;-37
2022/01/21 07:49:19;;;;;;;;;;;21.90;51.20;;;;;;4976516;28;1028;-36
2022/01/21 07:51:46;;;;;;;;;;;22.00;51.10;;;;;;4976580;28;948;-37
2022/01/21 07:54:13;;;;;;;;;;;21.90;50.90;;;;;;4976712;28;1011;-37
2022/01/21 07:56:40;;;;;;;;;;;21.90;51.10;;;;;;4976285;28;981;-37
2022/01/21 07:59:07;;;;;;;;;;;21.90;51.10;;;;;;4975932;28;924;-37
2022/01/21 08:01:34;;;;;;;;;;;21.90;51.20;;;;;;4975660;28;1008;-37
2022/01/21 08:04:01;;;;;;;;;;;21.90;51.00;;;;;;4976036;28;973;-37
2022/01/21 08:06:30;;;;;;;;;;;21.90;51.00;;;;;;4975008;28;1903;-37
2022/01/21 08:08:57;;;;;;;;;;;21.80;51.10;;;;;;4976034;28;1008;-37
2022/01/21 08:11:24;;;;;;;;;;;21.80;51.00;;;;;;4975295;28;854;-39
2022/01/21 08:13:51;;;;;;;;;;;21.80;51.10;;;;;;4976366;28;985;-38
2022/01/21 08:16:18;;;;;;;;;;;21.80;51.00;;;;;;4975735;28;1012;-37
2022/01/21 08:18:44;;;;;;;;;;;21.80;50.90;;;;;;4975732;28;1024;-37
2022/01/21 08:21:18;;;;;;;;;;;21.90;51.00;;;;;;4975992;28;1039;-38
2022/01/21 08:23:46;;;;;;;;;;;21.80;50.90;;;;;;4975056;28;1017;-37
2022/01/21 08:26:13;;;;;;;;;;;21.80;51.00;;;;;;4976119;28;1991;-37
2022/01/21 08:28:40;;;;;;;;;;;21.80;51.00;;;;;;4975762;28;968;-37
2022/01/21 08:31:07;;;;;;;;;;;21.80;50.90;;;;;;4975500;28;1012;-37
2022/01/21 08:33:33;;;;;;;;;;;21.80;51.00;;;;;;4974711;28;1019;-37
2022/01/21 08:36:00;;;;;;;;;;;21.80;51.00;;;;;;4975104;28;1042;-36
2022/01/21 08:38:27;;;;;;;;;;;21.80;51.10;;;;;;4975823;28;925;-39
2022/01/21 08:40:55;;;;;;;;;;;21.70;51.10;;;;;;4975476;28;1128;-37
2022/01/21 08:43:22;;;;;;;;;;;21.80;51.10;;;;;;4975579;28;1055;-38
2022/01/21 08:45:49;;;;;;;;;;;21.70;51.00;;;;;;4975168;28;1111;-38
2022/01/21 08:48:17;;;;;;;;;;;21.70;51.00;;;;;;4975697;28;1976;-37
2022/01/21 08:50:45;;;;;;;;;;;21.80;51.00;;;;;;4975822;28;996;-37
2022/01/21 08:53:36;;;;;;;;;;;21.70;51.00;;;;;;4976336;28;1403;-36
2022/01/21 08:56:05;;;;;;;;;;;21.70;51.00;;;;;;4976481;28;1576;-36
2022/01/21 08:58:32;;;;;;;;;;;21.70;51.00;;;;;;4975199;28;944;-37
2022/01/21 09:00:58;;;;;;;;;;;21.70;51.10;;;;;;4974790;28;1037;-37
2022/01/21 09:03:25;;;;;;;;;;;21.70;51.10;;;;;;4974823;28;939;-36
2022/01/21 09:05:52;;;;;;;;;;;21.70;51.10;;;;;;4975163;28;1010;-36
2022/01/21 09:08:22;;;;;;;;;;;21.70;51.10;;;;;;4974995;28;2040;-39
2022/01/21 09:10:49;;;;;;;;;;;21.60;51.00;;;;;;4975366;28;1012;-38
2022/01/21 09:13:17;;;;;;;;;;;21.60;51.00;;;;;;4975556;28;996;-36
2022/01/21 09:15:44;;;;;;;;;;;21.60;51.10;;;;;;4974882;28;991;-37
2022/01/21 09:18:17;;;;;;;;;;;21.60;51.10;;;;;;4974222;28;1017;-36
2022/01/21 09:20:44;;;;;;;;;;;21.60;51.10;;;;;;4975583;28;1006;-39
2022/01/21 09:23:10;;;;;;;;;;;21.60;51.00;;;;;;4977562;28;980;-37
2022/01/21 09:25:38;;;;;;;;;;;21.50;51.20;;;;;;4978825;28;1087;-37
2022/01/21 09:28:05;;;;;;;;;;;21.60;51.20;;;;;;4978543;28;1985;-36
2022/01/21 09:30:33;;;;;;;;;;;21.50;51.10;;;;;;4977900;28;1012;-37
2022/01/21 09:33:00;;;;;;;;;;;21.60;51.30;;;;;;4977706;28;1068;-36
2022/01/21 09:35:27;;;;;;;;;;;21.50;51.20;;;;;;4977574;28;1027;-37
2022/01/21 09:37:54;;;;;;;;;;;21.50;51.20;;;;;;4977277;28;1032;-37
2022/01/21 09:40:28;;;;;;;;;;;21.50;51.30;;;;;;4978288;28;964;-37
2022/01/21 09:42:54;;;;;;;;;;;21.50;51.10;;;;;;4978216;28;956;-36
2022/01/21 09:45:22;;;;;;;;;;;21.50;51.30;;;;;;4978120;28;1095;-36
2022/01/21 09:47:54;;;;;;;;;;;21.50;51.20;;;;;;4977508;28;1898;-36
2022/01/21 09:50:22;;;;;;;;;;;21.50;51.10;;;;;;4977868;28;924;-37
2022/01/21 09:52:49;;;;;;;;;;;21.50;51.20;;;;;;4978287;28;972;-38
2022/01/21 09:55:20;;;;;;;;;;;21.40;51.10;;;;;;4978230;28;873;-36
2022/01/21 09:57:48;;;;;;;;;;;21.40;51.20;;;;;;4978115;28;932;-36
2022/01/21 10:00:15;;;;;;;;;;;21.40;51.30;;;;;;4977504;28;980;-37
2022/01/21 10:02:43;;;;;;;;;;;21.50;51.20;;;;;;4977441;28;993;-38
2022/01/21 10:05:11;;;;;;;;;;;21.50;51.30;;;;;;4978303;28;928;-40
2022/01/21 10:07:40;;;;;;;;;;;21.40;51.30;;;;;;4977532;28;1983;-38
2022/01/21 10:10:08;;;;;;;;;;;21.50;51.20;;;;;;4977862;28;1445;-36
2022/01/21 10:12:35;;;;;;;;;;;21.50;51.20;;;;;;4977513;28;949;-37
2022/01/21 10:15:03;;;;;;;;;;;21.40;51.20;;;;;;4977661;28;1028;-38
2022/01/21 10:17:30;;;;;;;;;;;21.40;51.20;;;;;;4977875;28;996;-36
2022/01/21 10:20:11;;;;;;;;;;;21.40;51.20;;;;;;4978072;28;908;-38
2022/01/21 10:22:39;;;;;;;;;;;21.40;51.20;;;;;;4978054;28;1012;-37
2022/01/21 10:25:12;;;;;;;;;;;21.50;51.20;;;;;;4977373;28;976;-37
2022/01/21 10:27:39;;;;;;;;;;;21.40;51.20;;;;;;4977519;28;1910;-38
2022/01/21 10:30:18;;;;;;;;;;;21.40;51.20;;;;;;4978278;28;935;-38
2022/01/21 10:32:45;;;;;;;;;;;21.40;51.30;;;;;;4976968;28;1007;-37
2022/01/21 10:35:20;;;;;;;;;;;21.40;51.20;;;;;;4976883;28;1008;-37
2022/01/21 10:37:48;;;;;;;;;;;21.30;51.20;;;;;;4977188;28;1206;-38
2022/01/21 10:40:17;;;;;;;;;;;21.30;51.30;;;;;;4977939;28;993;-37
2022/01/21 10:42:45;;;;;;;;;;;21.30;51.30;;;;;;4977710;28;957;-37
2022/01/21 10:45:12;;;;;;;;;;;21.30;51.30;;;;;;4977400;28;1016;-37
2022/01/21 10:47:40;;;;;;;;;;;21.30;51.20;;;;;;4975429;28;1898;-37
2022/01/21 10:50:07;;;;;;;;;;;21.40;51.20;;;;;;4976019;28;936;-37
2022/01/21 10:52:35;;;;;;;;;;;21.40;51.20;;;;;;4975796;28;984;-37
2022/01/21 10:55:04;;;;;;;;;;;21.30;51.20;;;;;;4976586;28;1001;-36
2022/01/21 10:57:32;;;;;;;;;;;21.30;51.50;;;;;;4976540;28;925;-37
2022/01/21 11:00:00;;;;;;;;;;;21.30;51.40;;;;;;4976304;28;941;-37
2022/01/21 11:02:35;;;;;;;;;;;21.30;51.40;;;;;;4977030;28;1005;-37
2022/01/21 11:05:05;;;;;;;;;;;21.30;51.30;;;;;;4975931;28;984;-36
2022/01/21 11:07:45;;;;;;;;;;;21.30;51.30;;;;;;4975375;28;1894;-36
2022/01/21 11:10:35;;;;;;;;;;;21.30;51.40;;;;;;4975998;28;976;-37
2022/01/21 11:13:03;;;;;;;;;;;21.30;51.30;;;;;;4974960;28;942;-37
2022/01/21 11:15:38;;;;;;;;;;;21.30;51.20;;;;;;4975885;28;1062;-38
2022/01/21 11:18:06;;;;;;;;;;;21.40;51.30;;;;;;4976158;28;943;-37
2022/01/21 11:20:36;;;;;;;;;;;21.50;51.10;;;;;;4976413;28;1281;-38
2022/01/21 11:23:02;;;;;;;;;;;21.40;51.10;;;;;;4976247;28;1000;-37
2022/01/21 11:25:44;;;;;;;;;;;21.40;51.20;;;;;;4976640;28;942;-36
2022/01/21 11:28:13;;;;;;;;;;;21.40;51.20;;;;;;4976773;28;1918;-36
2022/01/21 11:30:39;;;;;;;;;;;21.30;51.20;;;;;;4976511;28;948;-37
2022/01/21 11:33:06;;;;;;;;;;;21.30;51.40;;;;;;4976021;28;952;-37
2022/01/21 11:35:33;;;;;;;;;;;21.20;51.40;;;;;;4975685;28;984;-37
2022/01/21 11:38:02;;;;;;;;;;;21.20;51.40;;;;;;4975491;28;1012;-37
2022/01/21 11:40:29;;;;;;;;;;;21.30;51.40;;;;;;4976127;28;1047;-39
2022/01/21 11:42:57;;;;;;;;;;;21.20;51.40;;;;;;4976224;28;962;-38
2022/01/21 11:45:43;;;;;;;;;;;21.20;51.40;;;;;;4975723;28;1541;-37
2022/01/21 11:48:50;;;;;;;;;;;21.30;51.40;;;;;;4975166;28;1919;-37
2022/01/21 11:51:00;;;;;;;;;;;21.30;51.40;;;;;;4975648;28;1312;-40
2022/01/21 11:53:46;;;;;;;;;;;21.20;51.40;;;;;;4975891;28;1791;-37
2022/01/21 11:56:28;;;;;;;;;;;21.20;51.40;;;;;;4975282;28;1000;-36
2022/01/21 11:59:09;;;;;;;;;;;21.20;51.40;;;;;;4973897;28;987;-38
2022/01/21 12:01:40;;;;;;;;;;;21.20;51.50;;;;;;4974370;28;956;-37
2022/01/21 12:04:07;;;;;;;;;;;21.20;51.40;;;;;;4973752;28;1816;-36
2022/01/21 12:06:34;;;;;;;;;;;21.20;51.40;;;;;;4974490;28;941;-37
2022/01/21 12:09:02;;;;;;;;;;;21.20;51.40;;;;;;4973721;28;1911;-37
2022/01/21 12:11:29;;;;;;;;;;;21.20;51.30;;;;;;4974837;28;997;-37
2022/01/21 12:13:56;;;;;;;;;;;21.20;51.40;;;;;;4974881;28;972;-37
2022/01/21 12:16:43;;;;;;;;;;;21.20;51.40;;;;;;4974377;28;973;-36
2022/01/21 12:19:25;;;;;;;;;;;21.20;51.40;;;;;;4974680;28;988;-36
2022/01/21 12:21:53;;;;;;;;;;;21.20;51.30;;;;;;4973993;28;1025;-37
2022/01/21 12:24:51;;;;;;;;;;;21.20;51.40;;;;;;4975037;28;1003;-37
2022/01/21 12:27:18;;;;;;;;;;;21.20;51.40;;;;;;4992114;28;1902;-38
2022/01/21 12:29:45;;;;;;;;;;;21.20;51.40;;;;;;4981890;28;1528;-37
2022/01/21 12:32:29;;;;;;;;;;;21.20;51.30;;;;;;5014351;28;894;-38
2022/01/21 12:35:14;;;;;;;;;;;21.10;51.30;;;;;;5013055;28;1016;-37
2022/01/21 12:38:04;;;;;;;;;;;21.10;51.40;;;;;;5012319;28;1004;-37
2022/01/21 12:40:35;;;;;;;;;;;21.20;51.30;;;;;;5013110;28;1002;-37
2022/01/21 12:43:17;;;;;;;;;;;21.20;51.20;;;;;;5013092;28;877;-38
2022/01/21 12:46:01;;;;;;;;;;;21.20;51.10;;;;;;5014559;28;1118;-37
2022/01/21 12:48:31;;;;;;;;;;;21.20;51.20;;;;;;5011657;28;1898;-37
2022/01/21 12:51:07;;;;;;;;;;;21.20;51.30;;;;;;5013642;28;968;-37
2022/01/21 12:53:45;;;;;;;;;;;21.20;51.30;;;;;;5013722;28;982;-37
2022/01/21 12:56:10;;;;;;;;;;;21.20;51.40;;;;;;5013529;28;952;-37
2022/01/21 12:58:39;;;;;;;;;;;21.10;51.20;;;;;;5012256;28;1020;-38
2022/01/21 13:01:08;;;;;;;;;;;21.10;51.20;;;;;;5014339;28;961;-40
2022/01/21 13:03:36;;;;;;;;;;;21.10;51.30;;;;;;5013849;28;1840;-37
2022/01/21 13:06:07;;;;;;;;;;;21.10;51.40;;;;;;5013768;28;1005;-37
2022/01/21 13:08:39;;;;;;;;;;;21.20;51.30;;;;;;5013997;28;1906;-38
2022/01/21 13:11:12;;;;;;;;;;;21.20;51.20;;;;;;5013829;28;996;-38
2022/01/21 13:13:49;;;;;;;;;;;21.20;51.20;;;;;;5013337;28;1035;-37
2022/01/21 13:16:29;;;;;;;;;;;21.20;51.20;;;;;;5014317;28;972;-38
2022/01/21 13:19:00;;;;;;;;;;;21.30;51.10;;;;;;5013871;28;1842;-37
2022/01/21 13:21:28;;;;;;;;;;;21.20;51.20;;;;;;5014271;28;996;-38
2022/01/21 13:23:57;;;;;;;;;;;21.20;51.20;;;;;;5013671;28;903;-37
2022/01/21 13:26:25;;;;;;;;;;;21.20;51.20;;;;;;5013331;28;1012;-37
2022/01/21 13:28:56;;;;;;;;;;;21.20;51.10;;;;;;5013756;28;1894;-37
2022/01/21 13:31:22;;;;;;;;;;;21.20;51.00;;;;;;5013852;28;996;-37
2022/01/21 13:33:50;;;;;;;;;;;21.20;51.10;;;;;;5013816;28;953;-37
2022/01/21 13:36:31;;;;;;;;;;;21.20;51.10;;;;;;5013858;28;928;-37
2022/01/21 13:39:08;;;;;;;;;;;21.10;50.90;;;;;;5014562;28;1616;-38
2022/01/21 13:41:46;;;;;;;;;;;21.20;51.10;;;;;;5013645;28;957;-37
2022/01/21 13:44:12;;;;;;;;;;;21.20;50.90;;;;;;5013661;28;1146;-37
2022/01/21 13:46:40;;;;;;;;;;;21.20;51.00;;;;;;5012949;28;1177;-39
2022/01/21 13:49:06;;;;;;;;;;;21.20;51.00;;;;;;5012689;28;1993;-37
2022/01/21 13:51:33;;;;;;;;;;;21.10;51.00;;;;;;5013429;28;1013;-38
2022/01/21 13:54:02;;;;;;;;;;;21.10;51.20;;;;;;5012705;28;1009;-38
2022/01/21 13:56:30;;;;;;;;;;;21.10;51.20;;;;;;5013139;28;997;-38
2022/01/21 13:58:57;;;;;;;;;;;21.10;51.20;;;;;;5012744;28;944;-40
2022/01/21 14:01:28;;;;;;;;;;;21.10;51.00;;;;;;5013167;28;995;-37
2022/01/21 14:03:57;;;;;;;;;;;21.10;51.00;;;;;;5012563;28;1014;-37
2022/01/21 14:06:24;;;;;;;;;;;21.10;51.10;;;;;;5013558;28;972;-37
2022/01/21 14:08:53;;;;;;;;;;;21.10;51.20;;;;;;5014522;28;1894;-37
2022/01/21 14:11:26;;;;;;;;;;;21.10;51.10;;;;;;5015276;28;924;-36
2022/01/21 14:13:59;;;;;;;;;;;21.10;51.10;;;;;;5015807;28;984;-38
2022/01/21 14:16:27;;;;;;;;;;;21.10;51.10;;;;;;5016117;28;992;-37
2022/01/21 14:18:54;;;;;;;;;;;21.10;51.10;;;;;;5015758;28;1007;-39
2022/01/21 14:21:22;;;;;;;;;;;21.10;51.00;;;;;;5016330;28;914;-37
2022/01/21 14:23:50;;;;;;;;;;;21.10;51.10;;;;;;5016020;28;925;-38
2022/01/21 14:26:18;;;;;;;;;;;21.10;51.10;;;;;;5017183;28;981;-38
2022/01/21 14:28:46;;;;;;;;;;;21.10;51.10;;;;;;5014934;28;1902;-37
2022/01/21 14:31:31;;;;;;;;;;;21.10;51.10;;;;;;5015176;28;1012;-38
2022/01/21 14:34:00;;;;;;;;;;;21.10;51.20;;;;;;5015862;28;984;-38
2022/01/21 14:36:27;;;;;;;;;;;21.10;51.20;;;;;;5015472;28;987;-38
2022/01/21 14:38:55;;;;;;;;;;;21.10;51.20;;;;;;5014410;28;974;-39
2022/01/21 14:41:26;;;;;;;;;;;21.10;51.30;;;;;;5015566;28;1011;-39
2022/01/21 14:43:54;;;;;;;;;;;21.10;51.30;;;;;;5015794;28;1168;-37
2022/01/21 14:46:25;;;;;;;;;;;21.10;51.10;;;;;;5014997;28;1098;-38
2022/01/21 14:48:56;;;;;;;;;;;21.10;51.10;;;;;;5015708;28;1963;-40
2022/01/21 14:51:32;;;;;;;;;;;21.00;51.10;;;;;;5014239;28;1844;-38
2022/01/21 14:54:08;;;;;;;;;;;21.10;51.30;;;;;;5013365;28;1003;-39
2022/01/21 14:56:35;;;;;;;;;;;21.10;51.20;;;;;;5015005;28;949;-38
2022/01/21 14:59:13;;;;;;;;;;;21.00;51.20;;;;;;5014183;28;981;-37
2022/01/21 15:01:56;;;;;;;;;;;21.00;51.20;;;;;;5015246;28;1056;-37
2022/01/21 15:04:23;;;;;;;;;;;21.00;51.30;;;;;;5014873;28;989;-38
2022/01/21 15:07:04;;;;;;;;;;;21.00;51.20;;;;;;5014753;28;900;-39
2022/01/21 15:09:31;;;;;;;;;;;21.00;51.10;;;;;;5015797;28;1899;-38
2022/01/21 15:12:10;;;;;;;;;;;21.00;51.10;;;;;;5014746;28;912;-37
2022/01/21 15:14:43;;;;;;;;;;;21.10;51.20;;;;;;5014866;28;924;-39
2022/01/21 15:17:11;;;;;;;;;;;21.00;51.10;;;;;;5014981;28;916;-39
2022/01/21 15:19:39;;;;;;;;;;;21.00;51.10;;;;;;5014569;28;1072;-37
2022/01/21 15:22:09;;;;;;;;;;;21.00;51.10;;;;;;5015171;28;936;-37
2022/01/21 15:24:37;;;;;;;;;;;21.00;51.10;;;;;;5015096;28;1001;-38
2022/01/21 15:27:04;;;;;;;;;;;21.00;51.10;;;;;;5014458;28;992;-36
2022/01/21 15:29:30;;;;;;;;;;;21.10;51.20;;;;;;5014547;28;1910;-37